createdAt,value
2017-07-29T00:01:25.690Z,23.59
2017-07-29T00:03:33.070Z,23.56
2017-07-29T00:05:57.366Z,23.55
2017-07-29T00:07:56.258Z,23.44
2017-07-29T00:10:20.545Z,23.44
2017-07-29T00:12:44.728Z,23.07
2017-07-29T00:15:09.013Z,22.99
2017-07-29T00:17:16.289Z,23.02
2017-07-29T00:19:32.089Z,22.93
2017-07-29T00:21:42.010Z,23.16
2017-07-29T00:24:06.132Z,23.06
2017-07-29T00:26:21.844Z,22.93
2017-07-29T00:28:29.106Z,22.91
2017-07-29T00:30:53.380Z,22.46
2017-07-29T00:33:17.554Z,22.63
2017-07-29T00:35:41.752Z,22.67
2017-07-29T00:37:43.143Z,22.61
2017-07-29T00:40:07.282Z,22.63
2017-07-29T00:42:31.386Z,22.63
2017-07-29T00:44:38.605Z,22.61
2017-07-29T00:47:02.736Z,22.49
2017-07-29T00:49:26.917Z,22.47
2017-07-29T00:51:51.102Z,22.52
2017-07-29T00:54:15.290Z,22.46
2017-07-29T00:56:39.471Z,22.19
2017-07-29T00:59:03.553Z,22.38
2017-07-29T01:01:10.769Z,22.33
2017-07-29T01:03:34.922Z,22.19
2017-07-29T01:05:50.559Z,22.07
2017-07-29T01:07:57.895Z,22.08
2017-07-29T01:10:13.540Z,22.25
2017-07-29T01:12:37.646Z,22
2017-07-29T01:14:53.348Z,22.14
2017-07-29T01:17:17.532Z,21.99
2017-07-29T01:19:41.715Z,21.91
2017-07-29T01:21:57.401Z,22.12
2017-07-29T01:24:13.087Z,22
2017-07-29T01:26:37.273Z,22.14
2017-07-29T01:29:01.352Z,22.07
2017-07-29T01:31:25.431Z,22
2017-07-29T01:33:49.619Z,21.97
2017-07-29T01:36:13.802Z,21.85
2017-07-29T01:38:21.090Z,22.12
2017-07-29T01:40:45.170Z,21.88
2017-07-29T01:43:10.073Z,22.01
2017-07-29T01:45:25.758Z,21.96
2017-07-29T01:47:49.838Z,21.97
2017-07-29T01:49:57.130Z,21.88
2017-07-29T01:52:21.210Z,21.94
2017-07-29T01:54:45.279Z,21.81
2017-07-29T01:57:00.847Z,21.84
2017-07-29T01:59:24.956Z,21.75
2017-07-29T02:01:40.643Z,21.84
2017-07-29T02:04:04.722Z,21.7
2017-07-29T02:06:29.395Z,21.75
2017-07-29T02:08:52.889Z,21.63
2017-07-29T02:11:08.491Z,21.54
2017-07-29T02:13:32.653Z,21.47
2017-07-29T02:15:56.737Z,21.4
2017-07-29T02:18:12.425Z,21.43
2017-07-29T02:20:36.456Z,21.43
2017-07-29T02:22:43.691Z,21.38
2017-07-29T02:25:07.710Z,21.33
2017-07-29T02:27:31.752Z,21.35
2017-07-29T02:29:55.836Z,21.25
2017-07-29T02:32:19.917Z,21.25
2017-07-29T02:34:35.600Z,21.35
2017-07-29T02:36:59.686Z,21.29
2017-07-29T02:39:15.366Z,21.25
2017-07-29T02:41:39.452Z,21.19
2017-07-29T02:44:03.417Z,21.26
2017-07-29T02:46:19.010Z,21.19
2017-07-29T02:48:43.095Z,21.19
2017-07-29T02:50:58.777Z,21.17
2017-07-29T02:53:22.859Z,21.17
2017-07-29T02:55:46.943Z,21.13
2017-07-29T02:58:11.025Z,21.15
2017-07-29T03:00:35.104Z,21.29
2017-07-29T03:02:50.789Z,21.23
2017-07-29T03:05:06.378Z,21.25
2017-07-29T03:07:21.957Z,21.23
2017-07-29T03:09:46.040Z,21.3
2017-07-29T03:12:01.721Z,21.32
2017-07-29T03:14:25.805Z,21.25
2017-07-29T03:16:49.888Z,21.2
2017-07-29T03:19:13.970Z,21.37
2017-07-29T03:21:37.991Z,21.37
2017-07-29T03:23:53.633Z,21.43
2017-07-29T03:26:17.718Z,21.35
2017-07-29T03:28:33.402Z,21.48
2017-07-29T03:30:57.480Z,21.5
2017-07-29T03:33:21.563Z,21.33
2017-07-29T03:35:45.658Z,21.32
2017-07-29T03:38:01.223Z,21.45
2017-07-29T03:40:25.312Z,21.43
2017-07-29T03:42:49.391Z,21.33
2017-07-29T03:45:13.476Z,21.37
2017-07-29T03:47:20.624Z,21.44
2017-07-29T03:49:27.845Z,21.56
2017-07-29T03:51:51.928Z,21.54
2017-07-29T03:54:16.009Z,21.35
2017-07-29T03:56:40.092Z,21.11
2017-07-29T03:58:47.278Z,21.19
2017-07-29T04:01:11.359Z,21.1
2017-07-29T04:03:35.369Z,21.03
2017-07-29T04:05:59.421Z,20.93
2017-07-29T04:08:23.508Z,20.86
2017-07-29T04:10:39.063Z,20.86
2017-07-29T04:13:03.169Z,21.01
2017-07-29T04:15:27.166Z,21.25
2017-07-29T04:17:42.826Z,21.23
2017-07-29T04:20:06.911Z,21.33
2017-07-29T04:22:30.991Z,21.4
2017-07-29T04:24:55.077Z,21.74
2017-07-29T04:27:19.158Z,21.7
2017-07-29T04:29:34.738Z,21.72
2017-07-29T04:31:58.768Z,21.6
2017-07-29T04:34:14.404Z,21.62
2017-07-29T04:36:30.099Z,21.77
2017-07-29T04:38:54.202Z,21.92
2017-07-29T04:41:18.357Z,21.83
2017-07-29T04:43:34.041Z,21.89
2017-07-29T04:45:49.622Z,22.04
2017-07-29T04:48:13.671Z,21.92
2017-07-29T04:50:37.785Z,21.96
2017-07-29T04:53:01.869Z,21.94
2017-07-29T04:55:17.554Z,21.85
2017-07-29T04:57:41.632Z,21.89
2017-07-29T04:59:57.207Z,21.84
2017-07-29T05:02:21.222Z,21.88
2017-07-29T05:04:45.280Z,21.94
2017-07-29T05:07:00.965Z,22.12
2017-07-29T05:09:25.048Z,22.33
2017-07-29T05:11:49.094Z,22.34
2017-07-29T05:14:04.811Z,22.37
2017-07-29T05:16:29.000Z,22.51
2017-07-29T05:18:53.082Z,22.49
2017-07-29T05:21:17.263Z,22.68
2017-07-29T05:23:41.451Z,22.68
2017-07-29T05:26:05.512Z,22.78
2017-07-29T05:28:29.599Z,22.88
2017-07-29T05:30:53.797Z,22.78
2017-07-29T05:33:09.482Z,22.73
2017-07-29T05:35:33.600Z,22.63
2017-07-29T05:37:49.350Z,22.65
2017-07-29T05:40:13.457Z,22.88
2017-07-29T05:42:37.599Z,23.1
2017-07-29T05:44:53.292Z,23.14
2017-07-29T05:47:17.486Z,23.23
2017-07-29T05:49:41.644Z,23.34
2017-07-29T05:52:05.774Z,23.25
2017-07-29T05:54:13.065Z,23.45
2017-07-29T05:56:37.328Z,23.34
2017-07-29T05:58:53.626Z,23.58
2017-07-29T06:01:09.322Z,23.48
2017-07-29T06:03:33.493Z,23.69
2017-07-29T06:05:57.783Z,23.64
2017-07-29T06:08:22.068Z,23.77
2017-07-29T06:10:46.357Z,23.32
2017-07-29T06:13:02.145Z,23.62
2017-07-29T06:15:26.303Z,23.81
2017-07-29T06:17:42.050Z,23.77
2017-07-29T06:19:49.343Z,23.85
2017-07-29T06:22:13.590Z,24.09
2017-07-29T06:24:29.376Z,24.18
2017-07-29T06:26:53.661Z,24.19
2017-07-29T06:29:09.439Z,24
2017-07-29T06:31:25.689Z,23.85
2017-07-29T06:33:49.524Z,23.99
2017-07-29T06:36:13.811Z,24.11
2017-07-29T06:38:38.097Z,24.21
2017-07-29T06:41:02.380Z,24.18
2017-07-29T06:43:18.176Z,23.94
2017-07-29T06:45:33.902Z,24.04
2017-07-29T06:47:49.688Z,23.88
2017-07-29T06:50:05.529Z,23.99
2017-07-29T06:52:29.766Z,24.09
2017-07-29T06:54:54.103Z,24.29
2017-07-29T06:57:09.995Z,24.09
2017-07-29T06:59:17.340Z,23.95
2017-07-29T07:01:33.126Z,23.95
2017-07-29T07:03:57.332Z,24.36
2017-07-29T07:06:21.645Z,24.46
2017-07-29T07:08:45.931Z,24.99
2017-07-29T07:11:10.320Z,25
2017-07-29T07:13:34.708Z,25.43
2017-07-29T07:15:50.603Z,25.8
2017-07-29T07:18:14.949Z,25.93
2017-07-29T07:20:39.377Z,25.92
2017-07-29T07:23:03.868Z,25.76
2017-07-29T07:25:28.206Z,25.76
2017-07-29T07:27:35.748Z,25.7
2017-07-29T07:30:00.242Z,26.11
2017-07-29T07:32:16.165Z,26.63
2017-07-29T07:34:23.726Z,27.64
2017-07-29T07:36:39.722Z,28.71
2017-07-29T07:39:04.190Z,29.69
2017-07-29T07:41:28.684Z,29.58
2017-07-29T07:43:53.293Z,30.27
2017-07-29T07:46:17.996Z,32.09
2017-07-29T07:48:28.747Z,31.59
2017-07-29T07:50:45.431Z,30.92
2017-07-29T07:53:10.105Z,30.54
2017-07-29T07:55:34.819Z,30.26
2017-07-29T07:57:59.663Z,31.15
2017-07-29T08:00:24.468Z,32.27
2017-07-29T08:02:51.412Z,32.72
2017-07-29T08:05:16.414Z,34.81
2017-07-29T08:07:41.523Z,36.92
2017-07-29T08:10:06.726Z,38.98
2017-07-29T08:12:32.092Z,40.58
2017-07-29T08:14:57.552Z,40.71
2017-07-29T08:17:29.930Z,38.75
2017-07-29T08:19:55.507Z,36.89
2017-07-29T08:22:21.162Z,37.79
2017-07-29T08:24:39.207Z,37.63
2017-07-29T08:27:12.403Z,38.07
2017-07-29T08:29:29.453Z,39.2
2017-07-29T08:32:03.028Z,40.35
2017-07-29T08:34:28.848Z,41.78
2017-07-29T08:36:54.673Z,41.03
2017-07-29T08:39:28.394Z,40.51
2017-07-29T08:41:54.217Z,38.7
2017-07-29T08:44:26.898Z,39.7
2017-07-29T08:46:52.626Z,38.77
2017-07-29T08:49:09.801Z,39.27
2017-07-29T08:51:33.902Z,38.81
2017-07-29T08:54:01.573Z,38.96
2017-07-29T08:56:29.273Z,36.38
2017-07-29T08:58:54.908Z,35.25
2017-07-29T09:01:20.497Z,36.26
2017-07-29T09:03:30.028Z,37.54
2017-07-29T09:05:47.074Z,38.42
2017-07-29T09:08:12.631Z,39.29
2017-07-29T09:10:39.215Z,38.23
2017-07-29T09:13:04.716Z,35.01
2017-07-29T09:15:30.203Z,35.71
2017-07-29T09:17:47.106Z,37.03
2017-07-29T09:20:04.028Z,35.44
2017-07-29T09:22:29.405Z,35.41
2017-07-29T09:24:54.815Z,35.42
2017-07-29T09:27:20.249Z,36.5
2017-07-29T09:29:45.669Z,35.53
2017-07-29T09:32:12.025Z,35.72
2017-07-29T09:34:29.884Z,35.5
2017-07-29T09:36:55.263Z,34.56
2017-07-29T09:39:20.668Z,34.28
2017-07-29T09:41:46.073Z,33.66
2017-07-29T09:44:11.411Z,34.43
2017-07-29T09:46:36.785Z,35.32
2017-07-29T09:49:02.187Z,35.32
2017-07-29T09:51:27.561Z,35.71
2017-07-29T09:53:52.906Z,34.66
2017-07-29T09:56:18.257Z,33.81
2017-07-29T09:58:43.634Z,34.11
2017-07-29T10:01:08.999Z,33.22
2017-07-29T10:03:34.335Z,34
2017-07-29T10:05:59.651Z,33.87
2017-07-29T10:08:23.450Z,33.69
2017-07-29T10:10:48.768Z,34.06
2017-07-29T10:13:14.016Z,33.81
2017-07-29T10:15:39.290Z,33.03
2017-07-29T10:18:04.577Z,32.93
2017-07-29T10:20:29.838Z,32.94
2017-07-29T10:22:55.085Z,33.35
2017-07-29T10:25:20.317Z,33.42
2017-07-29T10:27:47.512Z,33.38
2017-07-29T10:30:12.712Z,32.88
2017-07-29T10:32:37.939Z,33.33
2017-07-29T10:35:19.972Z,33.44
2017-07-29T10:37:45.160Z,33.28
2017-07-29T10:40:10.360Z,32.01
2017-07-29T10:42:35.538Z,32
2017-07-29T10:45:00.680Z,32.76
2017-07-29T10:47:25.827Z,33.15
2017-07-29T10:49:50.892Z,32.57
2017-07-29T10:52:08.540Z,32.6
2017-07-29T10:54:50.486Z,32.01
2017-07-29T10:57:15.591Z,32.17
2017-07-29T10:59:33.144Z,31.85
2017-07-29T11:02:04.987Z,31.39
2017-07-29T11:04:30.092Z,31.85
2017-07-29T11:06:55.159Z,31.97
2017-07-29T11:09:20.178Z,31.45
2017-07-29T11:11:45.219Z,31.35
2017-07-29T11:14:10.251Z,31.42
2017-07-29T11:16:35.249Z,31.63
2017-07-29T11:19:00.288Z,31.23
2017-07-29T11:21:25.388Z,31.2
2017-07-29T11:23:50.398Z,31.47
2017-07-29T11:26:32.032Z,31.14
2017-07-29T11:28:57.056Z,31.47
2017-07-29T11:31:22.034Z,31.44
2017-07-29T11:33:48.381Z,31.25
2017-07-29T11:36:21.746Z,31.7
2017-07-29T11:38:46.761Z,32.12
2017-07-29T11:41:11.808Z,32
2017-07-29T11:43:36.861Z,32.02
2017-07-29T11:46:04.074Z,31.98
2017-07-29T11:48:30.129Z,31.28
2017-07-29T11:50:55.088Z,31.11
2017-07-29T11:52:31.462Z,31.3
2017-07-29T11:54:56.449Z,31.42
2017-07-29T11:57:21.490Z,31.79
2017-07-29T11:59:46.363Z,32.05
2017-07-29T12:02:11.353Z,32.15
2017-07-29T12:04:36.334Z,32.37
2017-07-29T12:07:01.387Z,32.64
2017-07-29T12:09:04.132Z,32.17
2017-07-29T12:11:31.371Z,32.04
2017-07-29T12:14:05.166Z,32.01
2017-07-29T12:16:33.120Z,32.19
2017-07-29T12:18:58.158Z,32.49
2017-07-29T12:21:23.117Z,32.61
2017-07-29T12:23:39.595Z,32.11
2017-07-29T12:26:04.528Z,31.79
2017-07-29T12:28:21.020Z,31.48
2017-07-29T12:30:37.515Z,32.31
2017-07-29T12:32:39.140Z,31.95
2017-07-29T12:35:04.391Z,31.73
2017-07-29T12:36:48.769Z,31.54
2017-07-29T12:39:05.274Z,31.28
2017-07-29T12:41:30.215Z,31.45
2017-07-29T12:43:55.092Z,31.14
2017-07-29T12:46:19.992Z,31.39
2017-07-29T12:48:46.028Z,31.7
2017-07-29T12:51:10.882Z,31.79
2017-07-29T12:53:35.877Z,31.97
2017-07-29T12:55:52.481Z,31.69
2017-07-29T12:58:20.257Z,31.28
2017-07-29T13:00:47.205Z,31.6
2017-07-29T13:03:12.208Z,31.5
2017-07-29T13:05:37.213Z,31.69
2017-07-29T13:08:02.211Z,31.78
2017-07-29T13:10:12.376Z,32.17
2017-07-29T13:12:37.315Z,32.01
2017-07-29T13:15:02.313Z,32.07
2017-07-29T13:17:27.322Z,32.17
2017-07-29T13:19:37.501Z,32.15
2017-07-29T13:21:53.930Z,31.78
2017-07-29T13:24:18.882Z,31.77
2017-07-29T13:26:43.815Z,31.86
2017-07-29T13:29:00.757Z,32.12
2017-07-29T13:31:25.683Z,32.3
2017-07-29T13:33:50.615Z,32.35
2017-07-29T13:36:15.757Z,32.81
2017-07-29T13:38:57.361Z,32.94
2017-07-29T13:41:22.379Z,32.54
2017-07-29T13:43:47.415Z,32.51
2017-07-29T13:46:12.428Z,32.48
2017-07-29T13:48:37.335Z,32.15
2017-07-29T13:51:02.344Z,32
2017-07-29T13:53:12.544Z,32.34
2017-07-29T13:55:37.518Z,32.37
2017-07-29T13:58:02.496Z,32.27
2017-07-29T14:00:18.970Z,32.31
2017-07-29T14:02:21.967Z,32.75
2017-07-29T14:04:46.951Z,32.64
2017-07-29T14:07:12.215Z,32.75
2017-07-29T14:09:37.327Z,32.88
2017-07-29T14:11:45.856Z,32.6
2017-07-29T14:14:11.991Z,32.38
2017-07-29T14:16:39.636Z,32.12
2017-07-29T14:19:05.988Z,32.16
2017-07-29T14:21:36.229Z,32.04
2017-07-29T14:24:02.803Z,32.04
2017-07-29T14:26:33.305Z,31.98
2017-07-29T14:28:58.831Z,31.93
2017-07-29T14:31:23.773Z,32.15
2017-07-29T14:33:41.353Z,31.86
2017-07-29T14:36:06.309Z,32.19
2017-07-29T14:38:22.759Z,32.17
2017-07-29T14:40:47.757Z,32.41
2017-07-29T14:43:12.780Z,32.17
2017-07-29T14:45:37.764Z,32.3
2017-07-29T14:48:02.766Z,32.49
2017-07-29T14:50:27.742Z,32.23
2017-07-29T14:52:52.712Z,32.05
2017-07-29T14:55:17.704Z,31.74
2017-07-29T14:57:19.298Z,31.97
2017-07-29T14:59:44.254Z,32.01
2017-07-29T15:02:09.222Z,32.11
2017-07-29T15:04:25.696Z,31.98
2017-07-29T15:06:50.607Z,32.08
2017-07-29T15:09:15.516Z,32.05
2017-07-29T15:11:40.438Z,32.39
2017-07-29T15:14:05.381Z,32.08
2017-07-29T15:16:30.267Z,32
2017-07-29T15:18:55.221Z,32.01
2017-07-29T15:21:20.167Z,32.07
2017-07-29T15:23:21.879Z,32.49
2017-07-29T15:25:46.811Z,32.09
2017-07-29T15:28:03.283Z,32.09
2017-07-29T15:30:28.248Z,32.31
2017-07-29T15:32:53.178Z,32.02
2017-07-29T15:35:09.626Z,32.11
2017-07-29T15:37:34.565Z,32.07
2017-07-29T15:39:59.495Z,32.2
2017-07-29T15:42:24.449Z,32.11
2017-07-29T15:44:49.436Z,31.93
2017-07-29T15:47:14.378Z,32.02
2017-07-29T15:49:39.344Z,31.74
2017-07-29T15:52:04.231Z,31.9
2017-07-29T15:54:05.818Z,31.73
2017-07-29T15:56:30.692Z,31.33
2017-07-29T15:58:55.575Z,31.44
2017-07-29T16:00:31.993Z,31.57
2017-07-29T16:02:56.956Z,31.67
2017-07-29T16:05:22.033Z,31.62
2017-07-29T16:07:46.959Z,31.6
2017-07-29T16:10:11.870Z,31.87
2017-07-29T16:12:36.749Z,31.77
2017-07-29T16:14:53.169Z,31.93
2017-07-29T16:17:19.101Z,31.78
2017-07-29T16:19:43.989Z,31.82
2017-07-29T16:22:00.414Z,31.51
2017-07-29T16:24:25.261Z,31.73
2017-07-29T16:26:50.237Z,31.89
2017-07-29T16:29:16.148Z,32
2017-07-29T16:31:41.079Z,31.72
2017-07-29T16:33:58.569Z,32.01
2017-07-29T16:36:25.500Z,31.95
2017-07-29T16:38:58.827Z,31.82
2017-07-29T16:41:23.729Z,31.55
2017-07-29T16:43:48.937Z,31.69
2017-07-29T16:46:14.850Z,31.44
2017-07-29T16:48:38.632Z,31.62
2017-07-29T16:51:04.552Z,31.51
2017-07-29T16:53:29.393Z,31.69
2017-07-29T16:55:54.263Z,31.72
2017-07-29T16:58:19.132Z,31.82
2017-07-29T17:00:44.343Z,32
2017-07-29T17:03:09.222Z,31.95
2017-07-29T17:05:34.968Z,31.77
2017-07-29T17:07:59.902Z,31.95
2017-07-29T17:10:24.912Z,31.93
2017-07-29T17:12:49.741Z,31.95
2017-07-29T17:15:14.824Z,31.78
2017-07-29T17:17:39.805Z,32
2017-07-29T17:20:04.816Z,32.04
2017-07-29T17:22:29.664Z,32.08
2017-07-29T17:24:54.523Z,31.86
2017-07-29T17:27:19.503Z,31.79
2017-07-29T17:29:44.415Z,31.82
2017-07-29T17:32:09.319Z,31.98
2017-07-29T17:34:35.237Z,31.97
2017-07-29T17:37:00.089Z,31.73
2017-07-29T17:39:26.051Z,31.6
2017-07-29T17:41:51.054Z,31.62
2017-07-29T17:44:01.227Z,31.95
2017-07-29T17:46:26.126Z,31.73
2017-07-29T17:48:51.029Z,31.89
2017-07-29T17:51:15.923Z,31.86
2017-07-29T17:53:41.446Z,31.59
2017-07-29T17:56:06.284Z,31.77
2017-07-29T17:58:22.659Z,31.72
2017-07-29T18:00:39.026Z,31.64
2017-07-29T18:03:04.955Z,31.51
2017-07-29T18:05:15.600Z,31.17
2017-07-29T18:07:40.429Z,31.2
2017-07-29T18:09:42.533Z,31.33
2017-07-29T18:12:07.420Z,31.45
2017-07-29T18:14:32.396Z,31.57
2017-07-29T18:16:43.133Z,31.5
2017-07-29T18:19:07.997Z,31.5
2017-07-29T18:21:32.840Z,31.39
2017-07-29T18:23:57.772Z,31.37
2017-07-29T18:26:22.620Z,31.52
2017-07-29T18:28:47.389Z,31.51
2017-07-29T18:31:12.138Z,31.41
2017-07-29T18:33:37.079Z,31.47
2017-07-29T18:36:01.862Z,31.48
2017-07-29T18:38:26.973Z,31.32
2017-07-29T18:40:51.776Z,31.29
2017-07-29T18:43:16.698Z,31.17
2017-07-29T18:45:41.492Z,31.18
2017-07-29T18:48:06.385Z,31.11
2017-07-29T18:50:33.231Z,30.98
2017-07-29T18:52:58.158Z,30.78
2017-07-29T18:55:24.065Z,30.78
2017-07-29T18:57:48.838Z,30.59
2017-07-29T19:00:13.704Z,30.62
2017-07-29T19:02:38.412Z,30.62
2017-07-29T19:05:03.257Z,30.74
2017-07-29T19:07:28.185Z,30.58
2017-07-29T19:09:53.967Z,30.59
2017-07-29T19:12:19.275Z,30.43
2017-07-29T19:14:44.161Z,30.08
2017-07-29T19:17:08.998Z,30.1
2017-07-29T19:19:33.741Z,30.05
2017-07-29T19:21:58.570Z,29.9
2017-07-29T19:24:23.326Z,30.05
2017-07-29T19:26:48.055Z,29.86
2017-07-29T19:29:13.289Z,29.99
2017-07-29T19:31:38.040Z,29.86
2017-07-29T19:34:02.713Z,29.71
2017-07-29T19:36:27.411Z,29.65
2017-07-29T19:38:52.117Z,29.62
2017-07-29T19:41:16.798Z,29.58
2017-07-29T19:43:41.539Z,29.59
2017-07-29T19:46:06.789Z,29.61
2017-07-29T19:48:31.569Z,29.55
2017-07-29T19:50:56.290Z,29.53
2017-07-29T19:53:20.963Z,29.15
2017-07-29T19:55:45.685Z,28.96
2017-07-29T19:57:21.529Z,29
2017-07-29T19:59:46.280Z,28.74
2017-07-29T20:01:24.610Z,28.86
2017-07-29T20:03:49.353Z,28.89
2017-07-29T20:05:50.874Z,28.84
2017-07-29T20:08:15.590Z,29.06
2017-07-29T20:10:40.295Z,29.12
2017-07-29T20:13:05.050Z,29.05
2017-07-29T20:15:29.838Z,29.03
2017-07-29T20:19:31.053Z,29.03
2017-07-29T20:21:55.740Z,28.93
2017-07-29T20:24:20.432Z,28.57
2017-07-29T20:26:45.066Z,28.68
2017-07-29T20:29:09.652Z,28.64
2017-07-29T20:31:34.271Z,28.28
2017-07-29T20:33:58.836Z,28.31
2017-07-29T20:36:23.598Z,28.18
2017-07-29T20:38:48.261Z,28.25
2017-07-29T20:41:12.862Z,28.13
2017-07-29T20:43:37.565Z,28.06
2017-07-29T20:45:39.242Z,27.78
2017-07-29T20:48:03.921Z,27.81
2017-07-29T20:50:29.530Z,27.66
2017-07-29T20:52:54.108Z,27.6
2017-07-29T20:55:11.243Z,27.23
2017-07-29T20:57:27.440Z,26.96
2017-07-29T20:59:52.046Z,27
2017-07-29T21:02:16.633Z,26.89
2017-07-29T21:04:41.226Z,27
2017-07-29T21:07:05.826Z,27.03
2017-07-29T21:09:30.418Z,26.97
2017-07-29T21:11:55.008Z,27.15
2017-07-29T21:14:19.567Z,26.97
2017-07-29T21:16:44.085Z,26.92
2017-07-29T21:19:08.690Z,26.85
2017-07-29T21:21:33.283Z,26.83
2017-07-29T21:23:57.776Z,26.98
2017-07-29T21:26:05.352Z,27.04
2017-07-29T21:28:29.862Z,26.86
2017-07-29T21:30:45.942Z,26.97
2017-07-29T21:33:10.495Z,26.88
2017-07-29T21:35:18.082Z,26.92
2017-07-29T21:37:42.587Z,26.92
2017-07-29T21:40:07.227Z,26.93
2017-07-29T21:42:31.774Z,26.98
2017-07-29T21:44:56.317Z,27.19
2017-07-29T21:47:20.908Z,27.26
2017-07-29T21:49:37.003Z,27.04
2017-07-29T21:52:01.502Z,27
2017-07-29T21:54:26.098Z,27.07
2017-07-29T21:56:50.681Z,26.97
2017-07-29T21:59:06.733Z,27.2
2017-07-29T22:01:31.372Z,27.05
2017-07-29T22:03:55.873Z,27.23
2017-07-29T22:06:20.394Z,27.45
2017-07-29T22:08:36.554Z,27.29
2017-07-29T22:11:01.149Z,27.2
2017-07-29T22:13:17.210Z,27.34
2017-07-29T22:15:49.559Z,27.37
2017-07-29T22:18:14.036Z,27.5
2017-07-29T22:20:38.533Z,27.55
2017-07-29T22:22:40.029Z,27.6
2017-07-29T22:24:56.125Z,27.5
2017-07-29T22:27:20.640Z,27.44
2017-07-29T22:29:22.120Z,27.5
2017-07-29T22:31:46.682Z,27.57
2017-07-29T22:34:11.251Z,27.57
2017-07-29T22:36:35.786Z,27.5
2017-07-29T22:39:00.290Z,27.43
2017-07-29T22:40:53.301Z,27.41
2017-07-29T22:43:17.829Z,27.47
2017-07-29T22:45:42.319Z,27.41
2017-07-29T22:47:58.481Z,27.28
2017-07-29T22:50:23.080Z,27.13
2017-07-29T22:52:39.201Z,27.18
2017-07-29T22:55:03.673Z,27.08
2017-07-29T22:57:37.168Z,27.13
2017-07-29T22:59:30.199Z,27.26
2017-07-29T23:01:54.796Z,27.3
2017-07-29T23:04:10.863Z,27.34
2017-07-29T23:06:35.351Z,27.4
2017-07-29T23:08:59.892Z,27.34
2017-07-29T23:11:24.385Z,27.34
2017-07-29T23:13:48.867Z,27.29
2017-07-29T23:16:13.369Z,27.29
2017-07-29T23:18:37.849Z,27.34
2017-07-29T23:21:02.465Z,27.25
2017-07-29T23:23:27.102Z,27.22
2017-07-29T23:25:51.659Z,27.11
2017-07-29T23:28:18.201Z,27.07
2017-07-29T23:30:42.789Z,27.03
2017-07-29T23:32:58.835Z,27.01
2017-07-29T23:35:23.377Z,27.05
2017-07-29T23:37:39.468Z,27.04
2017-07-29T23:39:55.499Z,26.97
2017-07-29T23:42:19.945Z,26.88
2017-07-29T23:44:36.175Z,26.76
2017-07-29T23:47:00.677Z,26.76
2017-07-29T23:49:16.669Z,26.79
2017-07-29T23:51:32.674Z,26.88
2017-07-29T23:53:57.320Z,26.86
2017-07-29T23:56:16.001Z,26.88
2017-07-29T23:58:40.472Z,26.82
